createdAt,value
2019-03-08T00:00:58.196Z,0.00
2019-03-08T00:01:58.216Z,0.00
2019-03-08T00:02:58.150Z,0.00
2019-03-08T00:03:58.127Z,0.00
2019-03-08T00:04:58.099Z,0.00
2019-03-08T00:05:58.077Z,0.00
2019-03-08T00:06:58.080Z,0.00
2019-03-08T00:07:58.037Z,0.00
2019-03-08T00:08:58.015Z,0.00
2019-03-08T00:09:57.990Z,0.00
2019-03-08T00:10:57.965Z,0.00
2019-03-08T00:11:57.941Z,0.00
2019-03-08T00:12:57.920Z,0.00
2019-03-08T00:13:57.900Z,0.00
2019-03-08T00:14:57.871Z,0.00
2019-03-08T00:15:57.855Z,0.00
2019-03-08T00:16:57.861Z,0.00
2019-03-08T00:17:57.812Z,0.00
2019-03-08T00:18:57.785Z,0.00
2019-03-08T00:19:57.765Z,0.00
2019-03-08T00:20:57.742Z,0.00
2019-03-08T00:21:57.713Z,0.00
2019-03-08T00:22:57.692Z,0.00
2019-03-08T00:23:57.672Z,0.00
2019-03-08T00:24:57.643Z,0.00
2019-03-08T00:25:57.628Z,0.00
2019-03-08T00:26:57.598Z,0.00
2019-03-08T00:27:57.579Z,0.00
2019-03-08T00:28:57.563Z,0.00
2019-03-08T00:29:57.537Z,0.00
2019-03-08T00:30:57.509Z,0.00
2019-03-08T00:31:57.486Z,0.00
2019-03-08T00:32:57.467Z,0.00
2019-03-08T00:33:57.441Z,0.00
2019-03-08T00:34:57.418Z,0.00
2019-03-08T00:35:57.402Z,0.00
2019-03-08T00:36:57.373Z,0.00
2019-03-08T00:37:57.357Z,0.00
2019-03-08T00:38:57.329Z,0.00
2019-03-08T00:39:57.311Z,0.00
2019-03-08T00:40:57.293Z,0.00
2019-03-08T00:41:57.265Z,0.00
2019-03-08T00:42:57.242Z,0.00
2019-03-08T00:43:57.221Z,0.00
2019-03-08T00:44:57.201Z,0.00
2019-03-08T00:45:57.171Z,0.00
2019-03-08T00:46:57.170Z,0.00
2019-03-08T00:47:57.127Z,0.00
2019-03-08T00:48:57.107Z,0.00
2019-03-08T00:49:57.084Z,0.00
2019-03-08T00:50:57.055Z,0.00
2019-03-08T00:51:57.042Z,0.00
2019-03-08T00:52:57.011Z,0.00
2019-03-08T00:53:56.995Z,0.00
2019-03-08T00:54:56.972Z,0.00
2019-03-08T00:55:56.945Z,0.00
2019-03-08T00:56:56.928Z,0.00
2019-03-08T00:57:56.900Z,0.00
2019-03-08T00:58:56.878Z,0.00
2019-03-08T00:59:56.860Z,0.00
2019-03-08T01:00:56.828Z,0.00
2019-03-08T01:01:56.824Z,0.00
2019-03-08T01:02:56.788Z,0.00
2019-03-08T01:03:56.767Z,0.00
2019-03-08T01:04:56.746Z,0.00
2019-03-08T01:05:56.717Z,0.00
2019-03-08T01:06:56.699Z,0.00
2019-03-08T01:07:56.675Z,0.00
2019-03-08T01:08:56.649Z,0.00
2019-03-08T01:09:56.631Z,0.00
2019-03-08T01:10:56.608Z,0.00
2019-03-08T01:11:56.589Z,0.00
2019-03-08T01:12:56.564Z,0.00
2019-03-08T01:13:56.541Z,0.00
2019-03-08T01:14:56.512Z,0.00
2019-03-08T01:15:56.493Z,0.00
2019-03-08T01:16:56.471Z,0.00
2019-03-08T01:17:56.442Z,0.00
2019-03-08T01:18:56.428Z,0.00
2019-03-08T01:19:56.401Z,0.00
2019-03-08T01:20:56.376Z,0.00
2019-03-08T01:21:56.360Z,0.00
2019-03-08T01:22:56.332Z,0.00
2019-03-08T01:23:56.315Z,0.00
2019-03-08T01:24:56.287Z,0.00
2019-03-08T01:25:56.272Z,0.00
2019-03-08T01:26:56.242Z,0.00
2019-03-08T01:27:56.221Z,0.00
2019-03-08T01:28:56.201Z,0.00
2019-03-08T01:29:56.179Z,0.00
2019-03-08T01:30:56.150Z,0.00
2019-03-08T01:31:56.128Z,0.00
2019-03-08T01:32:56.106Z,0.00
2019-03-08T01:33:56.090Z,0.00
2019-03-08T01:34:56.061Z,0.00
2019-03-08T01:35:56.045Z,0.00
2019-03-08T01:36:56.020Z,0.00
2019-03-08T01:37:55.995Z,0.00
2019-03-08T01:38:55.973Z,0.00
2019-03-08T01:39:55.963Z,0.00
2019-03-08T01:40:55.929Z,0.00
2019-03-08T01:41:55.905Z,0.00
2019-03-08T01:42:55.883Z,0.00
2019-03-08T01:43:55.860Z,0.00
2019-03-08T01:44:55.845Z,0.00
2019-03-08T01:45:55.815Z,0.00
2019-03-08T01:46:55.809Z,0.00
2019-03-08T01:47:55.773Z,0.00
2019-03-08T01:48:55.761Z,0.00
2019-03-08T01:50:16.780Z,0.00
2019-03-08T01:50:55.706Z,0.00
2019-03-08T01:51:55.680Z,0.00
2019-03-08T01:52:55.661Z,0.00
2019-03-08T01:53:55.637Z,0.00
2019-03-08T01:54:55.613Z,0.00
2019-03-08T01:55:55.592Z,0.00
2019-03-08T01:56:55.567Z,0.00
2019-03-08T01:57:55.548Z,0.00
2019-03-08T01:58:55.524Z,0.00
2019-03-08T01:59:55.501Z,0.00
2019-03-08T02:00:55.484Z,0.00
2019-03-08T02:01:55.462Z,0.00
2019-03-08T02:02:55.430Z,0.00
2019-03-08T02:03:55.407Z,0.00
2019-03-08T02:04:55.385Z,0.00
2019-03-08T02:05:55.365Z,0.00
2019-03-08T02:06:55.343Z,0.00
2019-03-08T02:07:55.324Z,0.00
2019-03-08T02:08:55.301Z,0.00
2019-03-08T02:09:55.273Z,0.00
2019-03-08T02:10:55.250Z,0.00
2019-03-08T02:11:55.234Z,0.00
2019-03-08T02:12:55.202Z,0.00
2019-03-08T02:13:55.182Z,0.00
2019-03-08T02:14:55.164Z,0.00
2019-03-08T02:15:55.141Z,0.00
2019-03-08T02:16:55.119Z,0.00
2019-03-08T02:17:55.090Z,0.00
2019-03-08T02:18:55.068Z,0.00
2019-03-08T02:19:55.045Z,0.00
2019-03-08T02:20:55.024Z,0.00
2019-03-08T02:21:55.000Z,0.00
2019-03-08T02:22:54.983Z,0.00
2019-03-08T02:23:54.955Z,0.00
2019-03-08T02:24:54.934Z,0.00
2019-03-08T02:25:54.907Z,0.00
2019-03-08T02:26:54.894Z,0.00
2019-03-08T02:27:54.865Z,0.00
2019-03-08T02:28:54.845Z,0.00
2019-03-08T02:29:54.816Z,0.00
2019-03-08T02:30:54.793Z,0.00
2019-03-08T02:31:54.774Z,0.00
2019-03-08T02:32:54.745Z,0.00
2019-03-08T02:33:54.741Z,0.00
2019-03-08T02:34:54.700Z,0.00
2019-03-08T02:35:54.685Z,0.00
2019-03-08T02:36:54.659Z,0.00
2019-03-08T02:37:54.638Z,0.00
2019-03-08T02:38:54.615Z,0.00
2019-03-08T02:39:54.599Z,0.00
2019-03-08T02:40:54.563Z,0.00
2019-03-08T02:41:54.544Z,0.00
2019-03-08T02:42:54.519Z,0.00
2019-03-08T02:43:54.514Z,0.00
2019-03-08T02:44:54.479Z,0.00
2019-03-08T02:45:54.458Z,0.00
2019-03-08T02:46:54.429Z,0.00
2019-03-08T02:47:54.410Z,0.00
2019-03-08T02:48:54.381Z,0.00
2019-03-08T02:49:54.362Z,0.00
2019-03-08T02:50:54.336Z,0.00
2019-03-08T02:51:54.320Z,0.00
2019-03-08T02:52:54.295Z,0.00
2019-03-08T02:53:54.276Z,0.00
2019-03-08T02:54:54.250Z,0.00
2019-03-08T02:55:54.234Z,0.00
2019-03-08T02:56:54.206Z,0.00
2019-03-08T02:57:54.183Z,0.00
2019-03-08T02:58:54.155Z,0.00
2019-03-08T02:59:54.139Z,0.00
2019-03-08T03:00:54.108Z,0.00
2019-03-08T03:01:54.084Z,0.00
2019-03-08T03:02:54.069Z,0.00
2019-03-08T03:03:54.046Z,0.00
2019-03-08T03:04:54.018Z,0.00
2019-03-08T03:05:53.995Z,0.00
2019-03-08T03:06:53.980Z,0.00
2019-03-08T03:07:53.954Z,0.00
2019-03-08T03:08:53.932Z,0.00
2019-03-08T03:09:53.903Z,0.00
2019-03-08T03:10:53.883Z,0.00
2019-03-08T03:11:53.861Z,0.00
2019-03-08T03:12:53.842Z,0.00
2019-03-08T03:13:53.818Z,0.00
2019-03-08T03:14:53.790Z,0.00
2019-03-08T03:15:53.767Z,0.00
2019-03-08T03:16:53.747Z,0.00
2019-03-08T03:17:53.719Z,0.00
2019-03-08T03:18:53.697Z,0.00
2019-03-08T03:19:53.678Z,0.00
2019-03-08T03:20:53.648Z,0.00
2019-03-08T03:21:53.628Z,0.00
2019-03-08T03:22:53.612Z,0.00
2019-03-08T03:23:53.583Z,0.00
2019-03-08T03:24:53.564Z,0.00
2019-03-08T03:25:53.538Z,0.00
2019-03-08T03:26:53.512Z,0.00
2019-03-08T03:27:53.490Z,0.00
2019-03-08T03:28:53.474Z,0.00
2019-03-08T03:29:53.451Z,0.00
2019-03-08T03:30:53.505Z,0.00
2019-03-08T03:31:53.401Z,0.00
2019-03-08T03:32:53.384Z,0.00
2019-03-08T03:33:53.352Z,0.00
2019-03-08T03:34:53.351Z,0.00
2019-03-08T03:35:53.307Z,0.00
2019-03-08T03:36:53.288Z,0.00
2019-03-08T03:37:53.280Z,0.00
2019-03-08T03:38:53.243Z,0.00
2019-03-08T03:39:53.222Z,0.00
2019-03-08T03:40:53.190Z,0.00
2019-03-08T03:41:53.171Z,0.00
2019-03-08T03:42:53.146Z,0.00
2019-03-08T03:43:53.122Z,0.00
2019-03-08T03:44:53.096Z,0.00
2019-03-08T03:45:53.075Z,0.00
2019-03-08T03:46:53.058Z,0.00
2019-03-08T03:47:53.030Z,0.00
2019-03-08T03:48:53.004Z,0.00
2019-03-08T03:49:52.982Z,0.00
2019-03-08T03:50:52.960Z,0.00
2019-03-08T03:51:52.937Z,0.00
2019-03-08T03:52:52.911Z,0.00
2019-03-08T03:53:52.890Z,0.00
2019-03-08T03:54:52.889Z,0.00
2019-03-08T03:55:52.848Z,0.00
2019-03-08T03:56:53.595Z,0.00
2019-03-08T03:57:52.796Z,0.00
2019-03-08T03:58:52.780Z,0.00
2019-03-08T03:59:52.751Z,0.00
2019-03-08T04:00:52.735Z,0.00
2019-03-08T04:01:52.731Z,0.00
2019-03-08T04:02:52.681Z,0.00
2019-03-08T04:03:52.665Z,0.00
2019-03-08T04:04:52.640Z,0.00
2019-03-08T04:05:52.614Z,0.00
2019-03-08T04:06:52.587Z,0.00
2019-03-08T04:07:52.571Z,0.00
2019-03-08T04:08:52.549Z,0.00
2019-03-08T04:09:52.527Z,0.00
2019-03-08T04:10:52.494Z,0.00
2019-03-08T04:11:52.498Z,0.00
2019-03-08T04:12:52.453Z,0.00
2019-03-08T04:13:52.432Z,0.00
2019-03-08T04:14:52.410Z,0.00
2019-03-08T04:15:52.384Z,0.00
2019-03-08T04:16:52.355Z,0.00
2019-03-08T04:17:52.336Z,0.00
2019-03-08T04:18:52.311Z,0.00
2019-03-08T04:19:52.291Z,0.00
2019-03-08T04:20:52.263Z,0.00
2019-03-08T04:21:52.246Z,0.00
2019-03-08T04:22:52.220Z,0.00
2019-03-08T04:23:52.193Z,0.00
2019-03-08T04:24:52.175Z,0.00
2019-03-08T04:25:52.148Z,0.00
2019-03-08T04:26:52.127Z,0.00
2019-03-08T04:27:52.107Z,0.00
2019-03-08T04:28:52.074Z,0.00
2019-03-08T04:29:52.055Z,0.00
2019-03-08T04:30:52.030Z,0.00
2019-03-08T04:31:52.007Z,0.00
2019-03-08T04:32:51.984Z,0.00
2019-03-08T04:33:51.959Z,0.00
2019-03-08T04:34:51.943Z,0.00
2019-03-08T04:35:51.914Z,0.00
2019-03-08T04:36:51.889Z,0.00
2019-03-08T04:37:51.882Z,0.00
2019-03-08T04:38:51.858Z,0.00
2019-03-08T04:39:51.826Z,0.00
2019-03-08T04:40:51.803Z,0.00
2019-03-08T04:41:51.775Z,0.00
2019-03-08T04:42:51.755Z,0.00
2019-03-08T04:43:51.726Z,0.00
2019-03-08T04:44:51.704Z,0.00
2019-03-08T04:45:51.678Z,0.00
2019-03-08T04:46:51.656Z,0.00
2019-03-08T04:47:51.635Z,0.00
2019-03-08T04:48:51.610Z,0.00
2019-03-08T04:49:51.589Z,0.00
2019-03-08T04:50:51.565Z,0.00
2019-03-08T04:51:51.545Z,0.00
2019-03-08T04:52:51.525Z,0.00
2019-03-08T04:53:51.494Z,0.00
2019-03-08T04:54:51.474Z,0.00
2019-03-08T04:55:51.452Z,0.00
2019-03-08T04:56:51.422Z,0.00
2019-03-08T04:57:51.402Z,0.00
2019-03-08T04:58:51.381Z,0.00
2019-03-08T04:59:51.355Z,0.00
2019-03-08T05:00:51.336Z,0.00
2019-03-08T05:01:51.307Z,0.00
2019-03-08T05:02:51.291Z,0.00
2019-03-08T05:03:51.265Z,0.00
2019-03-08T05:04:51.243Z,0.00
2019-03-08T05:05:51.218Z,0.00
2019-03-08T05:06:51.193Z,0.00
2019-03-08T05:07:51.167Z,0.00
2019-03-08T05:08:51.141Z,0.00
2019-03-08T05:09:51.119Z,0.00
2019-03-08T05:10:51.100Z,0.00
2019-03-08T05:11:51.074Z,0.00
2019-03-08T05:12:51.048Z,0.00
2019-03-08T05:13:51.025Z,0.00
2019-03-08T05:14:51.014Z,0.00
2019-03-08T05:15:50.985Z,0.00
2019-03-08T05:16:50.955Z,0.00
2019-03-08T05:17:50.933Z,0.00
2019-03-08T05:18:50.925Z,0.00
2019-03-08T05:19:50.892Z,0.00
2019-03-08T05:20:50.869Z,0.00
2019-03-08T05:21:50.843Z,0.00
2019-03-08T05:22:50.828Z,0.00
2019-03-08T05:23:50.794Z,0.00
2019-03-08T05:24:50.769Z,0.00
2019-03-08T05:25:50.746Z,0.00
2019-03-08T05:26:50.730Z,4.00
2019-03-08T05:27:50.701Z,4.00
2019-03-08T05:28:50.672Z,4.00
2019-03-08T05:29:50.654Z,4.00
2019-03-08T05:30:50.627Z,8.00
2019-03-08T05:31:50.605Z,8.00
2019-03-08T05:32:50.586Z,8.00
2019-03-08T05:33:50.560Z,8.00
2019-03-08T05:34:50.540Z,12.00
2019-03-08T05:35:50.514Z,12.00
2019-03-08T05:36:50.499Z,16.00
2019-03-08T05:37:50.477Z,20.00
2019-03-08T05:38:50.441Z,24.00
2019-03-08T05:39:50.421Z,32.00
2019-03-08T05:40:50.396Z,36.00
2019-03-08T05:41:50.372Z,44.00
2019-03-08T05:42:50.349Z,44.00
2019-03-08T05:43:50.327Z,52.00
2019-03-08T05:44:50.305Z,60.00
2019-03-08T05:45:50.282Z,68.00
2019-03-08T05:46:50.280Z,76.00
2019-03-08T05:47:50.239Z,80.00
2019-03-08T05:48:50.210Z,84.00
2019-03-08T05:49:50.194Z,104.00
2019-03-08T05:50:50.166Z,104.00
2019-03-08T05:51:50.140Z,132.00
2019-03-08T05:52:50.123Z,152.00
2019-03-08T05:53:50.105Z,176.00
2019-03-08T05:54:50.076Z,184.00
2019-03-08T05:55:50.054Z,212.00
2019-03-08T05:56:50.029Z,216.00
2019-03-08T05:57:50.016Z,196.00
2019-03-08T05:58:49.978Z,248.00
2019-03-08T05:59:49.956Z,304.00
2019-03-08T06:00:49.930Z,316.00
2019-03-08T06:01:49.920Z,356.00
2019-03-08T06:02:49.905Z,352.00
2019-03-08T06:03:49.863Z,276.00
2019-03-08T06:04:49.838Z,268.00
2019-03-08T06:05:49.816Z,248.00
2019-03-08T06:06:49.797Z,244.00
2019-03-08T06:07:49.778Z,248.00
2019-03-08T06:08:49.755Z,288.00
2019-03-08T06:09:49.725Z,308.00
2019-03-08T06:10:49.707Z,332.00
2019-03-08T06:11:49.678Z,348.00
2019-03-08T06:12:49.673Z,344.00
2019-03-08T06:13:49.636Z,416.00
2019-03-08T06:14:49.618Z,440.00
2019-03-08T06:15:49.596Z,424.00
2019-03-08T06:16:49.563Z,420.00
2019-03-08T06:17:49.541Z,376.00
2019-03-08T06:18:49.525Z,408.00
2019-03-08T06:19:49.541Z,464.00
2019-03-08T06:20:49.480Z,448.00
2019-03-08T06:21:49.452Z,500.00
2019-03-08T06:22:49.435Z,456.00
2019-03-08T06:23:49.411Z,416.00
2019-03-08T06:24:49.378Z,524.00
2019-03-08T06:25:49.359Z,476.00
2019-03-08T06:26:49.362Z,444.00
2019-03-08T06:27:49.311Z,452.00
2019-03-08T06:28:49.292Z,444.00
2019-03-08T06:29:49.281Z,428.00
2019-03-08T06:30:49.241Z,500.00
2019-03-08T06:31:49.219Z,568.00
2019-03-08T06:32:49.203Z,608.00
2019-03-08T06:33:49.174Z,644.00
2019-03-08T06:34:49.149Z,656.00
2019-03-08T06:35:49.127Z,712.00
2019-03-08T06:36:49.111Z,776.00
2019-03-08T06:37:49.079Z,812.00
2019-03-08T06:38:49.062Z,816.00
2019-03-08T06:39:49.043Z,888.00
2019-03-08T06:40:49.020Z,1004.00
2019-03-08T06:41:48.997Z,1024.00
2019-03-08T06:42:48.968Z,1052.00
2019-03-08T06:43:48.946Z,1080.00
2019-03-08T06:44:48.927Z,1216.00
2019-03-08T06:45:48.904Z,1096.00
2019-03-08T06:46:48.883Z,1056.00
2019-03-08T06:47:48.868Z,1060.00
2019-03-08T06:48:48.828Z,1352.00
2019-03-08T06:49:48.812Z,1276.00
2019-03-08T06:50:48.792Z,1488.00
2019-03-08T06:51:48.763Z,1460.00
2019-03-08T06:52:48.739Z,1604.00
2019-03-08T06:53:48.747Z,1772.00
2019-03-08T06:54:48.694Z,1664.00
2019-03-08T06:55:48.679Z,1768.00
2019-03-08T06:56:48.651Z,1764.00
2019-03-08T06:57:48.626Z,1700.00
2019-03-08T06:58:48.607Z,1832.00
2019-03-08T06:59:48.581Z,2092.00
2019-03-08T07:00:48.556Z,2168.00
2019-03-08T07:01:48.543Z,2172.00
2019-03-08T07:02:48.517Z,2444.00
2019-03-08T07:03:48.489Z,2992.00
2019-03-08T07:04:48.473Z,3408.00
2019-03-08T07:05:48.447Z,3564.00
2019-03-08T07:06:48.423Z,3708.00
2019-03-08T07:07:48.427Z,3964.00
2019-03-08T07:08:48.377Z,4196.00
2019-03-08T07:09:48.353Z,4460.00
2019-03-08T07:10:48.343Z,4828.00
2019-03-08T07:11:48.311Z,4760.00
2019-03-08T07:12:48.294Z,4696.00
2019-03-08T07:13:48.264Z,4736.00
2019-03-08T07:14:48.247Z,4124.00
2019-03-08T07:15:48.227Z,4056.00
2019-03-08T07:16:48.196Z,4132.00
2019-03-08T07:17:48.174Z,4400.00
2019-03-08T07:18:48.154Z,4760.00
2019-03-08T07:19:48.129Z,4740.00
2019-03-08T07:20:48.114Z,4880.00
2019-03-08T07:21:48.091Z,5368.00
2019-03-08T07:22:48.062Z,5544.00
2019-03-08T07:23:48.046Z,5588.00
2019-03-08T07:24:48.038Z,5988.00
2019-03-08T07:25:51.834Z,6224.00
2019-03-08T07:26:47.988Z,6824.00
2019-03-08T07:27:47.949Z,6768.00
2019-03-08T07:28:47.933Z,6496.00
2019-03-08T07:29:47.907Z,6492.00
2019-03-08T07:30:57.280Z,7688.00
2019-03-08T07:31:47.863Z,8168.00
2019-03-08T07:32:47.840Z,7124.00
2019-03-08T07:33:53.190Z,7024.00
2019-03-08T07:34:47.821Z,7072.00
2019-03-08T07:35:47.775Z,7240.00
2019-03-08T07:36:47.753Z,6400.00
2019-03-08T07:37:47.731Z,5568.00
2019-03-08T07:38:47.708Z,5544.00
2019-03-08T07:39:47.686Z,6284.00
2019-03-08T07:40:47.671Z,7384.00
2019-03-08T07:41:47.642Z,6288.00
2019-03-08T07:42:47.634Z,5728.00
2019-03-08T07:43:47.608Z,6300.00
2019-03-08T07:44:47.579Z,7216.00
2019-03-08T07:45:47.563Z,7676.00
2019-03-08T07:46:47.541Z,7720.00
2019-03-08T07:47:47.515Z,7376.00
2019-03-08T07:48:47.496Z,9008.00
2019-03-08T07:49:47.477Z,9300.00
2019-03-08T07:50:47.449Z,8388.00
2019-03-08T07:51:47.429Z,8112.00
2019-03-08T07:52:47.413Z,8408.00
2019-03-08T07:53:47.384Z,8048.00
2019-03-08T07:54:52.974Z,7844.00
2019-03-08T07:55:47.349Z,8164.00
2019-03-08T07:56:47.327Z,7068.00
2019-03-08T07:57:47.298Z,7500.00
2019-03-08T07:58:47.290Z,7060.00
2019-03-08T07:59:53.791Z,7168.00
2019-03-08T08:00:47.234Z,7480.00
2019-03-08T08:01:47.215Z,7276.00
2019-03-08T08:02:47.196Z,7536.00
2019-03-08T08:03:47.177Z,6812.00
2019-03-08T08:04:47.149Z,6800.00
2019-03-08T08:05:47.135Z,6092.00
2019-03-08T08:06:47.116Z,5896.00
2019-03-08T08:07:47.090Z,5872.00
2019-03-08T08:08:51.537Z,5676.00
2019-03-08T08:09:47.040Z,5156.00
2019-03-08T08:10:47.023Z,4664.00
2019-03-08T08:11:47.011Z,5380.00
2019-03-08T08:12:46.982Z,4360.00
2019-03-08T08:13:46.963Z,4388.00
2019-03-08T08:14:46.934Z,5008.00
2019-03-08T08:15:46.918Z,5704.00
2019-03-08T08:16:46.890Z,8152.00
2019-03-08T08:17:46.880Z,10368.00
2019-03-08T08:18:46.854Z,9612.00
2019-03-08T08:19:46.835Z,10404.00
2019-03-08T08:20:46.804Z,10664.00
2019-03-08T08:21:46.781Z,9316.00
2019-03-08T08:22:46.762Z,9364.00
2019-03-08T08:23:46.746Z,11232.00
2019-03-08T08:24:46.717Z,9356.00
2019-03-08T08:25:46.702Z,10144.00
2019-03-08T08:26:46.685Z,8808.00
2019-03-08T08:27:46.656Z,9424.00
2019-03-08T08:28:49.945Z,8588.00
2019-03-08T08:29:46.611Z,7324.00
2019-03-08T08:30:46.591Z,8840.00
2019-03-08T08:31:46.570Z,8760.00
2019-03-08T08:32:46.553Z,8748.00
2019-03-08T08:33:46.527Z,10420.00
2019-03-08T08:34:46.559Z,10912.00
2019-03-08T08:35:46.489Z,10416.00
2019-03-08T08:36:46.466Z,10280.00
2019-03-08T08:37:46.450Z,9412.00
2019-03-08T08:38:46.420Z,10168.00
2019-03-08T08:39:46.401Z,11068.00
2019-03-08T08:40:46.378Z,12192.00
2019-03-08T08:41:46.356Z,11808.00
2019-03-08T08:42:46.340Z,11272.00
2019-03-08T08:43:46.314Z,12240.00
2019-03-08T08:44:46.300Z,13140.00
2019-03-08T08:45:46.272Z,13488.00
2019-03-08T08:46:46.259Z,13052.00
2019-03-08T08:47:46.288Z,13784.00
2019-03-08T08:48:46.211Z,14656.00
2019-03-08T08:49:54.326Z,14652.00
2019-03-08T08:50:46.177Z,15076.00
2019-03-08T08:51:46.156Z,14904.00
2019-03-08T08:52:46.128Z,13436.00
2019-03-08T08:53:46.109Z,11964.00
2019-03-08T08:54:46.087Z,12036.00
2019-03-08T08:55:46.070Z,11612.00
2019-03-08T08:56:46.044Z,11420.00
2019-03-08T08:57:46.037Z,11692.00
2019-03-08T08:58:46.011Z,11916.00
2019-03-08T08:59:45.992Z,12228.00
2019-03-08T09:00:45.963Z,12192.00
2019-03-08T09:01:45.950Z,12324.00
2019-03-08T09:02:45.924Z,12704.00
2019-03-08T09:03:45.909Z,12492.00
2019-03-08T09:04:45.884Z,13120.00
2019-03-08T09:05:45.868Z,13616.00
2019-03-08T09:06:45.841Z,14612.00
2019-03-08T09:07:45.838Z,14488.00
2019-03-08T09:08:47.393Z,13800.00
2019-03-08T09:09:45.780Z,14412.00
2019-03-08T09:10:45.781Z,14236.00
2019-03-08T09:11:52.130Z,14700.00
2019-03-08T09:12:45.721Z,13932.00
2019-03-08T09:13:45.698Z,12956.00
2019-03-08T09:14:47.060Z,11312.00
2019-03-08T09:15:45.659Z,9940.00
2019-03-08T09:16:45.643Z,8356.00
2019-03-08T09:17:45.617Z,7720.00
2019-03-08T09:18:45.609Z,6848.00
2019-03-08T09:19:45.593Z,7856.00
2019-03-08T09:20:45.556Z,7236.00
2019-03-08T09:21:45.537Z,6864.00
2019-03-08T09:22:45.521Z,7848.00
2019-03-08T09:23:45.493Z,6868.00
2019-03-08T09:24:45.473Z,5832.00
2019-03-08T09:25:45.460Z,5488.00
2019-03-08T09:26:45.437Z,5596.00
2019-03-08T09:27:45.417Z,5520.00
2019-03-08T09:28:45.389Z,5720.00
2019-03-08T09:29:45.376Z,5420.00
2019-03-08T09:30:45.355Z,6864.00
2019-03-08T09:31:45.335Z,6788.00
2019-03-08T09:32:45.325Z,6028.00
2019-03-08T09:33:45.284Z,5048.00
2019-03-08T09:34:45.302Z,4760.00
2019-03-08T09:35:45.240Z,6060.00
2019-03-08T09:36:45.227Z,5620.00
2019-03-08T09:37:45.205Z,6084.00
2019-03-08T09:38:45.185Z,5840.00
2019-03-08T09:39:45.154Z,6056.00
2019-03-08T09:40:45.135Z,6168.00
2019-03-08T09:41:45.113Z,7532.00
2019-03-08T09:42:45.097Z,7120.00
2019-03-08T09:43:45.075Z,7936.00
2019-03-08T09:44:45.054Z,8852.00
2019-03-08T09:45:45.023Z,8208.00
2019-03-08T09:46:45.011Z,8356.00
2019-03-08T09:47:44.982Z,8180.00
2019-03-08T09:48:48.678Z,7976.00
2019-03-08T09:49:44.940Z,7840.00
2019-03-08T09:50:44.953Z,6960.00
2019-03-08T09:51:44.892Z,6368.00
2019-03-08T09:52:44.883Z,5336.00
2019-03-08T09:53:44.855Z,4652.00
2019-03-08T09:54:44.825Z,4124.00
2019-03-08T09:55:44.809Z,4088.00
2019-03-08T09:56:44.787Z,3640.00
2019-03-08T09:57:44.758Z,3564.00
2019-03-08T09:58:44.736Z,3380.00
2019-03-08T09:59:44.720Z,3204.00
2019-03-08T10:00:44.698Z,3284.00
2019-03-08T10:01:44.674Z,3408.00
2019-03-08T10:02:44.652Z,3344.00
2019-03-08T10:03:46.448Z,3116.00
2019-03-08T10:04:44.602Z,3060.00
2019-03-08T10:05:44.586Z,3272.00
2019-03-08T10:06:44.557Z,3592.00
2019-03-08T10:07:44.541Z,3716.00
2019-03-08T10:08:44.519Z,3480.00
2019-03-08T10:09:44.487Z,3556.00
2019-03-08T10:10:44.474Z,3692.00
2019-03-08T10:11:44.448Z,3316.00
2019-03-08T10:12:44.448Z,3404.00
2019-03-08T10:13:44.407Z,3544.00
2019-03-08T10:14:44.375Z,3628.00
2019-03-08T10:15:44.353Z,3876.00
2019-03-08T10:16:44.330Z,4192.00
2019-03-08T10:17:44.312Z,4552.00
2019-03-08T10:18:44.289Z,4748.00
2019-03-08T10:19:44.268Z,5392.00
2019-03-08T10:20:44.240Z,5704.00
2019-03-08T10:21:44.214Z,5616.00
2019-03-08T10:22:44.195Z,5316.00
2019-03-08T10:23:44.176Z,6012.00
2019-03-08T10:24:44.154Z,6148.00
2019-03-08T10:25:44.124Z,6724.00
2019-03-08T10:26:44.102Z,7664.00
2019-03-08T10:27:44.102Z,7580.00
2019-03-08T10:28:44.061Z,6664.00
2019-03-08T10:29:44.039Z,7576.00
2019-03-08T10:30:44.017Z,7424.00
2019-03-08T10:31:43.988Z,7164.00
2019-03-08T10:32:43.969Z,7280.00
2019-03-08T10:33:46.772Z,7076.00
2019-03-08T10:34:43.924Z,6944.00
2019-03-08T10:35:43.901Z,8420.00
2019-03-08T10:36:43.873Z,7632.00
2019-03-08T10:37:43.867Z,7220.00
2019-03-08T10:38:43.834Z,7824.00
2019-03-08T10:39:43.811Z,7084.00
2019-03-08T10:40:43.789Z,7764.00
2019-03-08T10:41:43.762Z,7472.00
2019-03-08T10:42:43.741Z,7172.00
2019-03-08T10:43:43.725Z,7484.00
2019-03-08T10:44:43.690Z,7652.00
2019-03-08T10:45:43.671Z,7532.00
2019-03-08T10:46:43.651Z,6996.00
2019-03-08T10:47:43.654Z,6644.00
2019-03-08T10:48:43.605Z,6604.00
2019-03-08T10:49:43.583Z,6984.00
2019-03-08T10:50:43.560Z,7916.00
2019-03-08T10:51:43.534Z,8812.00
2019-03-08T10:52:43.510Z,9584.00
2019-03-08T10:53:43.496Z,10220.00
2019-03-08T10:54:43.465Z,10440.00
2019-03-08T10:55:43.442Z,11148.00
2019-03-08T10:56:43.420Z,12232.00
2019-03-08T10:57:43.399Z,11516.00
2019-03-08T10:58:43.376Z,10520.00
2019-03-08T10:59:43.354Z,11560.00
2019-03-08T11:00:43.333Z,11276.00
2019-03-08T11:01:43.311Z,11868.00
2019-03-08T11:02:43.285Z,10360.00
2019-03-08T11:03:43.263Z,12344.00
2019-03-08T11:04:43.244Z,12680.00
2019-03-08T11:05:43.221Z,10636.00
2019-03-08T11:06:43.195Z,11264.00
2019-03-08T11:07:43.179Z,13604.00
2019-03-08T11:08:43.157Z,14256.00
2019-03-08T11:09:43.134Z,15648.00
2019-03-08T11:10:43.106Z,15152.00
2019-03-08T11:11:43.087Z,16360.00
2019-03-08T11:12:43.064Z,16892.00
2019-03-08T11:13:43.664Z,17316.00
2019-03-08T11:14:43.025Z,17888.00
2019-03-08T11:15:42.996Z,17168.00
2019-03-08T11:16:43.476Z,17056.00
2019-03-08T11:17:50.493Z,16856.00
2019-03-08T11:18:42.936Z,15192.00
2019-03-08T11:19:42.910Z,13512.00
2019-03-08T11:20:42.890Z,14160.00
2019-03-08T11:21:42.873Z,13312.00
2019-03-08T11:22:42.869Z,12736.00
2019-03-08T11:23:42.829Z,13084.00
2019-03-08T11:24:42.806Z,10276.00
2019-03-08T11:25:42.791Z,10068.00
2019-03-08T11:26:42.758Z,13728.00
2019-03-08T11:27:42.751Z,10848.00
2019-03-08T11:28:42.714Z,8876.00
2019-03-08T11:29:42.694Z,8308.00
2019-03-08T11:30:42.677Z,7028.00
2019-03-08T11:31:42.652Z,5780.00
2019-03-08T11:32:42.661Z,4864.00
2019-03-08T11:33:42.608Z,4820.00
2019-03-08T11:34:51.785Z,4108.00
2019-03-08T11:35:42.570Z,5676.00
2019-03-08T11:36:42.553Z,4748.00
2019-03-08T11:37:42.525Z,5228.00
2019-03-08T11:38:42.506Z,6380.00
2019-03-08T11:39:42.477Z,7404.00
2019-03-08T11:40:42.454Z,5228.00
2019-03-08T11:41:42.441Z,4512.00
2019-03-08T11:42:42.416Z,3516.00
2019-03-08T11:43:42.393Z,3436.00
2019-03-08T11:44:42.368Z,5456.00
2019-03-08T11:45:42.343Z,5092.00
2019-03-08T11:46:42.320Z,4708.00
2019-03-08T11:47:42.308Z,5540.00
2019-03-08T11:48:44.274Z,4944.00
2019-03-08T11:49:42.585Z,4920.00
2019-03-08T11:50:42.231Z,6320.00
2019-03-08T11:51:42.215Z,7636.00
2019-03-08T11:52:42.199Z,7432.00
2019-03-08T11:53:42.171Z,7008.00
2019-03-08T11:54:42.142Z,7172.00
2019-03-08T11:55:42.124Z,7544.00
2019-03-08T11:56:42.098Z,8604.00
2019-03-08T11:57:42.081Z,10424.00
2019-03-08T11:58:42.058Z,11456.00
2019-03-08T11:59:42.038Z,12288.00
2019-03-08T12:00:42.005Z,14760.00
2019-03-08T12:01:41.986Z,18432.00
2019-03-08T12:02:41.963Z,20288.00
2019-03-08T12:03:41.949Z,21120.00
2019-03-08T12:04:41.925Z,21952.00
2019-03-08T12:05:41.897Z,21312.00
2019-03-08T12:06:41.877Z,21280.00
2019-03-08T12:07:42.012Z,21504.00
2019-03-08T12:08:41.831Z,20288.00
2019-03-08T12:09:41.810Z,18016.00
2019-03-08T12:10:41.786Z,16716.00
2019-03-08T12:11:41.769Z,17416.00
2019-03-08T12:12:41.746Z,19520.00
2019-03-08T12:13:41.729Z,21792.00
2019-03-08T12:14:41.709Z,23232.00
2019-03-08T12:15:41.684Z,25248.00
2019-03-08T12:16:41.658Z,26720.00
2019-03-08T12:17:41.640Z,28672.00
2019-03-08T12:18:41.618Z,30720.00
2019-03-08T12:19:41.598Z,30496.00
2019-03-08T12:20:41.603Z,29696.00
2019-03-08T12:21:41.557Z,30400.00
2019-03-08T12:22:41.541Z,29920.00
2019-03-08T12:23:41.519Z,29984.00
2019-03-08T12:24:41.506Z,29440.00
2019-03-08T12:25:41.480Z,28672.00
2019-03-08T12:26:41.470Z,30080.00
2019-03-08T12:27:41.451Z,33024.00
2019-03-08T12:28:41.428Z,24064.00
2019-03-08T12:29:41.431Z,19904.00
2019-03-08T12:30:41.393Z,15200.00
2019-03-08T12:31:41.378Z,12828.00
2019-03-08T12:32:41.357Z,11492.00
2019-03-08T12:33:41.342Z,11200.00
2019-03-08T12:34:41.326Z,10800.00